sensor_id;sensor_type;location;lat;lon;timestamp;P1;durP1;ratioP1;P2;durP2;ratioP2
59233;SDS011;60776;51.702;7.462;2023-07-30T00:01:58;4.55;;;3.40;;
59233;SDS011;60776;51.702;7.462;2023-07-30T00:04:24;4.38;;;3.00;;
59233;SDS011;60776;51.702;7.462;2023-07-30T00:06:50;4.00;;;3.58;;
59233;SDS011;60776;51.702;7.462;2023-07-30T00:09:15;5.15;;;4.13;;
59233;SDS011;60776;51.702;7.462;2023-07-30T00:11:41;4.03;;;3.72;;
59233;SDS011;60776;51.702;7.462;2023-07-30T00:14:07;5.20;;;3.55;;
59233;SDS011;60776;51.702;7.462;2023-07-30T00:16:35;4.13;;;3.42;;
59233;SDS011;60776;51.702;7.462;2023-07-30T00:19:00;3.65;;;3.35;;
59233;SDS011;60776;51.702;7.462;2023-07-30T00:21:26;4.10;;;3.50;;
59233;SDS011;60776;51.702;7.462;2023-07-30T00:23:52;3.78;;;3.47;;
59233;SDS011;60776;51.702;7.462;2023-07-30T00:26:17;4.70;;;3.35;;
59233;SDS011;60776;51.702;7.462;2023-07-30T00:28:43;6.38;;;4.10;;
59233;SDS011;60776;51.702;7.462;2023-07-30T00:31:09;6.30;;;4.78;;
59233;SDS011;60776;51.702;7.462;2023-07-30T00:33:34;6.75;;;4.40;;
59233;SDS011;60776;51.702;7.462;2023-07-30T00:36:00;4.95;;;3.80;;
59233;SDS011;60776;51.702;7.462;2023-07-30T00:38:25;5.45;;;4.30;;
59233;SDS011;60776;51.702;7.462;2023-07-30T00:40:51;5.70;;;3.78;;
59233;SDS011;60776;51.702;7.462;2023-07-30T00:43:17;4.88;;;3.78;;
59233;SDS011;60776;51.702;7.462;2023-07-30T00:45:43;3.33;;;3.03;;
59233;SDS011;60776;51.702;7.462;2023-07-30T00:48:12;6.82;;;3.60;;
59233;SDS011;60776;51.702;7.462;2023-07-30T00:50:39;4.78;;;3.55;;
59233;SDS011;60776;51.702;7.462;2023-07-30T00:53:08;4.97;;;3.20;;
59233;SDS011;60776;51.702;7.462;2023-07-30T00:55:36;3.78;;;3.13;;
59233;SDS011;60776;51.702;7.462;2023-07-30T00:58:02;2.97;;;2.78;;
59233;SDS011;60776;51.702;7.462;2023-07-30T01:00:28;3.55;;;2.90;;
59233;SDS011;60776;51.702;7.462;2023-07-30T01:02:55;5.07;;;3.22;;
59233;SDS011;60776;51.702;7.462;2023-07-30T01:05:21;5.00;;;2.60;;
59233;SDS011;60776;51.702;7.462;2023-07-30T01:07:46;6.00;;;3.40;;
59233;SDS011;60776;51.702;7.462;2023-07-30T01:10:12;7.15;;;3.60;;
59233;SDS011;60776;51.702;7.462;2023-07-30T01:12:40;6.72;;;3.40;;
59233;SDS011;60776;51.702;7.462;2023-07-30T01:15:08;4.30;;;3.25;;
59233;SDS011;60776;51.702;7.462;2023-07-30T01:17:35;5.75;;;3.67;;
59233;SDS011;60776;51.702;7.462;2023-07-30T01:20:01;4.38;;;2.83;;
59233;SDS011;60776;51.702;7.462;2023-07-30T01:22:27;5.57;;;2.90;;
59233;SDS011;60776;51.702;7.462;2023-07-30T01:24:53;5.07;;;2.75;;
59233;SDS011;60776;51.702;7.462;2023-07-30T01:27:22;4.30;;;3.10;;
59233;SDS011;60776;51.702;7.462;2023-07-30T01:29:53;3.50;;;2.60;;
59233;SDS011;60776;51.702;7.462;2023-07-30T01:32:26;4.97;;;3.10;;
59233;SDS011;60776;51.702;7.462;2023-07-30T01:34:55;5.88;;;3.33;;
59233;SDS011;60776;51.702;7.462;2023-07-30T01:37:22;7.18;;;3.40;;
59233;SDS011;60776;51.702;7.462;2023-07-30T01:39:49;5.70;;;2.83;;
59233;SDS011;60776;51.702;7.462;2023-07-30T01:42:16;3.92;;;3.15;;
59233;SDS011;60776;51.702;7.462;2023-07-30T01:44:42;3.40;;;2.92;;
59233;SDS011;60776;51.702;7.462;2023-07-30T01:47:08;5.38;;;3.67;;
59233;SDS011;60776;51.702;7.462;2023-07-30T01:49:36;7.15;;;2.88;;
59233;SDS011;60776;51.702;7.462;2023-07-30T01:52:01;6.13;;;3.15;;
59233;SDS011;60776;51.702;7.462;2023-07-30T01:54:30;5.40;;;3.10;;
59233;SDS011;60776;51.702;7.462;2023-07-30T01:56:55;4.30;;;3.03;;
59233;SDS011;60776;51.702;7.462;2023-07-30T01:59:21;4.25;;;2.80;;
59233;SDS011;60776;51.702;7.462;2023-07-30T02:01:46;6.00;;;3.08;;
59233;SDS011;60776;51.702;7.462;2023-07-30T02:04:15;5.50;;;2.95;;
59233;SDS011;60776;51.702;7.462;2023-07-30T02:06:44;6.38;;;2.50;;
59233;SDS011;60776;51.702;7.462;2023-07-30T02:09:10;4.07;;;2.42;;
59233;SDS011;60776;51.702;7.462;2023-07-30T02:11:36;3.72;;;2.60;;
59233;SDS011;60776;51.702;7.462;2023-07-30T02:14:01;4.57;;;3.00;;
59233;SDS011;60776;51.702;7.462;2023-07-30T02:16:27;4.55;;;2.70;;
59233;SDS011;60776;51.702;7.462;2023-07-30T02:18:52;5.95;;;3.28;;
59233;SDS011;60776;51.702;7.462;2023-07-30T02:21:18;4.15;;;2.90;;
59233;SDS011;60776;51.702;7.462;2023-07-30T02:23:44;7.15;;;3.40;;
59233;SDS011;60776;51.702;7.462;2023-07-30T02:26:09;5.38;;;3.05;;
59233;SDS011;60776;51.702;7.462;2023-07-30T02:28:37;5.93;;;3.17;;
59233;SDS011;60776;51.702;7.462;2023-07-30T02:31:03;3.75;;;3.08;;
59233;SDS011;60776;51.702;7.462;2023-07-30T02:33:29;3.08;;;2.80;;
59233;SDS011;60776;51.702;7.462;2023-07-30T02:35:54;4.65;;;3.05;;
59233;SDS011;60776;51.702;7.462;2023-07-30T02:38:20;5.68;;;3.13;;
59233;SDS011;60776;51.702;7.462;2023-07-30T02:40:48;3.38;;;3.08;;
59233;SDS011;60776;51.702;7.462;2023-07-30T02:43:14;4.13;;;2.75;;
59233;SDS011;60776;51.702;7.462;2023-07-30T02:45:39;4.00;;;2.95;;
59233;SDS011;60776;51.702;7.462;2023-07-30T02:48:05;4.93;;;2.83;;
59233;SDS011;60776;51.702;7.462;2023-07-30T02:50:31;2.75;;;2.38;;
59233;SDS011;60776;51.702;7.462;2023-07-30T02:52:56;5.20;;;2.65;;
59233;SDS011;60776;51.702;7.462;2023-07-30T02:55:22;7.22;;;2.92;;
59233;SDS011;60776;51.702;7.462;2023-07-30T02:57:50;6.78;;;3.65;;
59233;SDS011;60776;51.702;7.462;2023-07-30T03:00:16;7.25;;;3.40;;
59233;SDS011;60776;51.702;7.462;2023-07-30T03:02:42;8.43;;;3.00;;
59233;SDS011;60776;51.702;7.462;2023-07-30T03:05:08;5.80;;;2.78;;
59233;SDS011;60776;51.702;7.462;2023-07-30T03:07:34;3.35;;;2.47;;
59233;SDS011;60776;51.702;7.462;2023-07-30T03:10:00;5.95;;;2.70;;
59233;SDS011;60776;51.702;7.462;2023-07-30T03:12:26;6.03;;;3.10;;
59233;SDS011;60776;51.702;7.462;2023-07-30T03:14:52;4.03;;;2.70;;
59233;SDS011;60776;51.702;7.462;2023-07-30T03:17:17;3.75;;;2.78;;
59233;SDS011;60776;51.702;7.462;2023-07-30T03:19:46;3.10;;;2.75;;
59233;SDS011;60776;51.702;7.462;2023-07-30T03:22:14;5.20;;;2.50;;
59233;SDS011;60776;51.702;7.462;2023-07-30T03:24:41;3.95;;;2.60;;
59233;SDS011;60776;51.702;7.462;2023-07-30T03:27:06;3.33;;;2.60;;
59233;SDS011;60776;51.702;7.462;2023-07-30T03:29:35;3.55;;;2.60;;
59233;SDS011;60776;51.702;7.462;2023-07-30T03:32:00;5.38;;;3.40;;
59233;SDS011;60776;51.702;7.462;2023-07-30T03:34:29;7.95;;;4.13;;
59233;SDS011;60776;51.702;7.462;2023-07-30T03:36:54;3.05;;;2.58;;
59233;SDS011;60776;51.702;7.462;2023-07-30T03:39:20;4.40;;;2.88;;
59233;SDS011;60776;51.702;7.462;2023-07-30T03:41:46;7.45;;;3.20;;
59233;SDS011;60776;51.702;7.462;2023-07-30T03:44:11;5.10;;;3.22;;
59233;SDS011;60776;51.702;7.462;2023-07-30T03:46:37;6.22;;;3.42;;
59233;SDS011;60776;51.702;7.462;2023-07-30T03:49:03;5.35;;;3.10;;
59233;SDS011;60776;51.702;7.462;2023-07-30T03:51:28;5.07;;;3.20;;
59233;SDS011;60776;51.702;7.462;2023-07-30T03:53:54;5.10;;;3.40;;
59233;SDS011;60776;51.702;7.462;2023-07-30T03:56:19;7.15;;;3.75;;
59233;SDS011;60776;51.702;7.462;2023-07-30T03:58:45;4.80;;;3.58;;
59233;SDS011;60776;51.702;7.462;2023-07-30T04:01:11;5.47;;;3.30;;
59233;SDS011;60776;51.702;7.462;2023-07-30T04:03:36;4.80;;;3.38;;
59233;SDS011;60776;51.702;7.462;2023-07-30T04:06:02;5.50;;;3.38;;
59233;SDS011;60776;51.702;7.462;2023-07-30T04:08:28;6.18;;;3.40;;
59233;SDS011;60776;51.702;7.462;2023-07-30T04:10:53;6.10;;;3.45;;
59233;SDS011;60776;51.702;7.462;2023-07-30T04:13:19;7.38;;;3.85;;
59233;SDS011;60776;51.702;7.462;2023-07-30T04:15:46;6.07;;;2.83;;
59233;SDS011;60776;51.702;7.462;2023-07-30T04:18:12;5.47;;;3.25;;
59233;SDS011;60776;51.702;7.462;2023-07-30T04:20:38;5.82;;;3.15;;
59233;SDS011;60776;51.702;7.462;2023-07-30T04:23:06;9.27;;;3.65;;
59233;SDS011;60776;51.702;7.462;2023-07-30T04:25:31;4.13;;;3.50;;
59233;SDS011;60776;51.702;7.462;2023-07-30T04:27:57;3.58;;;3.15;;
59233;SDS011;60776;51.702;7.462;2023-07-30T04:30:23;4.32;;;2.90;;
59233;SDS011;60776;51.702;7.462;2023-07-30T04:32:51;4.38;;;2.45;;
59233;SDS011;60776;51.702;7.462;2023-07-30T04:35:19;4.65;;;2.53;;
59233;SDS011;60776;51.702;7.462;2023-07-30T04:37:47;6.93;;;2.78;;
59233;SDS011;60776;51.702;7.462;2023-07-30T04:40:12;5.10;;;2.20;;
59233;SDS011;60776;51.702;7.462;2023-07-30T04:42:38;4.05;;;2.20;;
59233;SDS011;60776;51.702;7.462;2023-07-30T04:45:04;4.47;;;3.00;;
59233;SDS011;60776;51.702;7.462;2023-07-30T04:47:30;8.35;;;3.22;;
59233;SDS011;60776;51.702;7.462;2023-07-30T04:49:56;3.50;;;2.33;;
59233;SDS011;60776;51.702;7.462;2023-07-30T04:52:21;4.88;;;2.50;;
59233;SDS011;60776;51.702;7.462;2023-07-30T04:54:47;5.63;;;2.65;;
59233;SDS011;60776;51.702;7.462;2023-07-30T04:57:12;3.60;;;2.55;;
59233;SDS011;60776;51.702;7.462;2023-07-30T04:59:38;6.22;;;3.00;;
59233;SDS011;60776;51.702;7.462;2023-07-30T05:02:04;5.15;;;3.00;;
59233;SDS011;60776;51.702;7.462;2023-07-30T05:04:30;5.22;;;2.63;;
59233;SDS011;60776;51.702;7.462;2023-07-30T05:06:55;7.40;;;2.53;;
59233;SDS011;60776;51.702;7.462;2023-07-30T05:09:21;4.90;;;2.45;;
59233;SDS011;60776;51.702;7.462;2023-07-30T05:11:46;6.85;;;3.20;;
59233;SDS011;60776;51.702;7.462;2023-07-30T05:14:12;9.00;;;3.10;;
59233;SDS011;60776;51.702;7.462;2023-07-30T05:16:38;6.53;;;2.80;;
59233;SDS011;60776;51.702;7.462;2023-07-30T05:19:03;9.00;;;3.72;;
59233;SDS011;60776;51.702;7.462;2023-07-30T05:21:29;7.18;;;3.20;;
59233;SDS011;60776;51.702;7.462;2023-07-30T05:23:55;6.57;;;3.17;;
59233;SDS011;60776;51.702;7.462;2023-07-30T05:26:20;5.72;;;3.20;;
59233;SDS011;60776;51.702;7.462;2023-07-30T05:28:46;8.05;;;3.33;;
59233;SDS011;60776;51.702;7.462;2023-07-30T05:31:11;8.20;;;3.42;;
59233;SDS011;60776;51.702;7.462;2023-07-30T05:33:37;5.63;;;3.20;;
59233;SDS011;60776;51.702;7.462;2023-07-30T05:36:02;8.32;;;3.53;;
59233;SDS011;60776;51.702;7.462;2023-07-30T05:38:28;7.57;;;2.80;;
59233;SDS011;60776;51.702;7.462;2023-07-30T05:40:54;7.45;;;3.33;;
59233;SDS011;60776;51.702;7.462;2023-07-30T05:43:19;6.93;;;3.58;;
59233;SDS011;60776;51.702;7.462;2023-07-30T05:45:45;5.15;;;3.05;;
59233;SDS011;60776;51.702;7.462;2023-07-30T05:48:11;5.28;;;3.33;;
59233;SDS011;60776;51.702;7.462;2023-07-30T05:50:38;8.55;;;4.50;;
59233;SDS011;60776;51.702;7.462;2023-07-30T05:53:04;9.52;;;7.32;;
59233;SDS011;60776;51.702;7.462;2023-07-30T05:55:30;10.95;;;7.43;;
59233;SDS011;60776;51.702;7.462;2023-07-30T05:57:55;15.40;;;11.90;;
59233;SDS011;60776;51.702;7.462;2023-07-30T06:00:21;17.92;;;13.05;;
59233;SDS011;60776;51.702;7.462;2023-07-30T06:02:49;14.23;;;11.00;;
59233;SDS011;60776;51.702;7.462;2023-07-30T06:05:15;15.43;;;12.13;;
59233;SDS011;60776;51.702;7.462;2023-07-30T06:07:40;13.60;;;11.80;;
59233;SDS011;60776;51.702;7.462;2023-07-30T06:10:06;17.33;;;12.27;;
59233;SDS011;60776;51.702;7.462;2023-07-30T06:12:32;13.05;;;10.80;;
59233;SDS011;60776;51.702;7.462;2023-07-30T06:14:58;16.05;;;10.27;;
59233;SDS011;60776;51.702;7.462;2023-07-30T06:17:23;11.18;;;8.88;;
59233;SDS011;60776;51.702;7.462;2023-07-30T06:19:51;16.30;;;11.35;;
59233;SDS011;60776;51.702;7.462;2023-07-30T06:22:17;15.30;;;10.27;;
59233;SDS011;60776;51.702;7.462;2023-07-30T06:24:50;16.40;;;12.75;;
59233;SDS011;60776;51.702;7.462;2023-07-30T06:27:16;13.80;;;11.18;;
59233;SDS011;60776;51.702;7.462;2023-07-30T06:29:41;13.23;;;9.90;;
59233;SDS011;60776;51.702;7.462;2023-07-30T06:32:07;15.13;;;9.95;;
59233;SDS011;60776;51.702;7.462;2023-07-30T06:34:33;14.35;;;9.63;;
59233;SDS011;60776;51.702;7.462;2023-07-30T06:36:58;11.68;;;7.68;;
59233;SDS011;60776;51.702;7.462;2023-07-30T06:39:26;12.35;;;8.77;;
59233;SDS011;60776;51.702;7.462;2023-07-30T06:41:52;16.52;;;10.27;;
59233;SDS011;60776;51.702;7.462;2023-07-30T06:44:18;13.73;;;7.65;;
59233;SDS011;60776;51.702;7.462;2023-07-30T06:46:43;16.83;;;9.13;;
59233;SDS011;60776;51.702;7.462;2023-07-30T06:49:09;13.52;;;8.88;;
59233;SDS011;60776;51.702;7.462;2023-07-30T06:51:34;15.15;;;8.73;;
59233;SDS011;60776;51.702;7.462;2023-07-30T06:54:00;12.93;;;9.27;;
59233;SDS011;60776;51.702;7.462;2023-07-30T06:56:26;17.83;;;12.80;;
59233;SDS011;60776;51.702;7.462;2023-07-30T06:58:51;20.63;;;11.18;;
59233;SDS011;60776;51.702;7.462;2023-07-30T07:01:17;18.65;;;11.52;;
59233;SDS011;60776;51.702;7.462;2023-07-30T07:03:43;18.45;;;11.13;;
59233;SDS011;60776;51.702;7.462;2023-07-30T07:06:08;15.85;;;11.02;;
59233;SDS011;60776;51.702;7.462;2023-07-30T07:08:34;16.02;;;10.40;;
59233;SDS011;60776;51.702;7.462;2023-07-30T07:10:59;14.40;;;10.23;;
59233;SDS011;60776;51.702;7.462;2023-07-30T07:13:25;12.73;;;8.35;;
59233;SDS011;60776;51.702;7.462;2023-07-30T07:15:51;14.07;;;9.25;;
59233;SDS011;60776;51.702;7.462;2023-07-30T07:18:17;14.57;;;9.55;;
59233;SDS011;60776;51.702;7.462;2023-07-30T07:20:45;12.80;;;7.45;;
59233;SDS011;60776;51.702;7.462;2023-07-30T07:23:11;10.13;;;6.10;;
59233;SDS011;60776;51.702;7.462;2023-07-30T07:25:36;16.92;;;8.45;;
59233;SDS011;60776;51.702;7.462;2023-07-30T07:28:02;12.23;;;6.57;;
59233;SDS011;60776;51.702;7.462;2023-07-30T07:30:28;15.07;;;7.50;;
59233;SDS011;60776;51.702;7.462;2023-07-30T07:32:54;8.30;;;5.60;;
59233;SDS011;60776;51.702;7.462;2023-07-30T07:35:20;10.30;;;6.20;;
59233;SDS011;60776;51.702;7.462;2023-07-30T07:37:46;12.65;;;6.30;;
59233;SDS011;60776;51.702;7.462;2023-07-30T07:40:12;11.52;;;6.53;;
59233;SDS011;60776;51.702;7.462;2023-07-30T07:42:38;13.75;;;5.70;;
59233;SDS011;60776;51.702;7.462;2023-07-30T07:45:04;11.52;;;5.63;;
59233;SDS011;60776;51.702;7.462;2023-07-30T07:47:31;12.93;;;6.20;;
59233;SDS011;60776;51.702;7.462;2023-07-30T07:49:57;15.13;;;9.38;;
59233;SDS011;60776;51.702;7.462;2023-07-30T07:52:22;11.18;;;7.68;;
59233;SDS011;60776;51.702;7.462;2023-07-30T07:54:48;11.40;;;7.50;;
59233;SDS011;60776;51.702;7.462;2023-07-30T07:57:16;14.20;;;9.05;;
59233;SDS011;60776;51.702;7.462;2023-07-30T07:59:42;11.38;;;7.55;;
59233;SDS011;60776;51.702;7.462;2023-07-30T08:02:10;10.18;;;7.28;;
59233;SDS011;60776;51.702;7.462;2023-07-30T08:04:37;14.05;;;8.02;;
59233;SDS011;60776;51.702;7.462;2023-07-30T08:07:02;12.15;;;7.72;;
59233;SDS011;60776;51.702;7.462;2023-07-30T08:09:29;9.45;;;6.10;;
59233;SDS011;60776;51.702;7.462;2023-07-30T08:11:55;7.38;;;6.18;;
59233;SDS011;60776;51.702;7.462;2023-07-30T08:14:21;14.52;;;8.13;;
59233;SDS011;60776;51.702;7.462;2023-07-30T08:16:46;16.30;;;7.88;;
59233;SDS011;60776;51.702;7.462;2023-07-30T08:19:12;10.35;;;7.70;;
59233;SDS011;60776;51.702;7.462;2023-07-30T08:21:38;10.20;;;7.05;;
59233;SDS011;60776;51.702;7.462;2023-07-30T08:24:03;9.38;;;7.28;;
59233;SDS011;60776;51.702;7.462;2023-07-30T08:26:29;8.52;;;6.57;;
59233;SDS011;60776;51.702;7.462;2023-07-30T08:28:56;12.13;;;7.07;;
59233;SDS011;60776;51.702;7.462;2023-07-30T08:31:22;9.27;;;5.20;;
59233;SDS011;60776;51.702;7.462;2023-07-30T08:33:48;8.85;;;5.72;;
59233;SDS011;60776;51.702;7.462;2023-07-30T08:36:14;8.48;;;5.00;;
59233;SDS011;60776;51.702;7.462;2023-07-30T08:38:39;8.73;;;4.70;;
59233;SDS011;60776;51.702;7.462;2023-07-30T08:41:05;10.43;;;4.60;;
59233;SDS011;60776;51.702;7.462;2023-07-30T08:43:31;7.38;;;4.00;;
59233;SDS011;60776;51.702;7.462;2023-07-30T08:45:57;5.90;;;2.88;;
59233;SDS011;60776;51.702;7.462;2023-07-30T08:48:22;8.95;;;3.50;;
59233;SDS011;60776;51.702;7.462;2023-07-30T08:50:48;9.00;;;3.80;;
59233;SDS011;60776;51.702;7.462;2023-07-30T08:53:17;8.63;;;3.53;;
59233;SDS011;60776;51.702;7.462;2023-07-30T08:55:46;10.23;;;4.28;;
59233;SDS011;60776;51.702;7.462;2023-07-30T08:58:12;6.72;;;3.80;;
59233;SDS011;60776;51.702;7.462;2023-07-30T09:00:39;5.47;;;3.40;;
59233;SDS011;60776;51.702;7.462;2023-07-30T09:03:07;5.75;;;3.00;;
59233;SDS011;60776;51.702;7.462;2023-07-30T09:05:33;6.03;;;3.80;;
59233;SDS011;60776;51.702;7.462;2023-07-30T09:07:59;6.38;;;2.78;;
59233;SDS011;60776;51.702;7.462;2023-07-30T09:10:25;5.03;;;2.90;;
59233;SDS011;60776;51.702;7.462;2023-07-30T09:12:52;6.65;;;3.53;;
59233;SDS011;60776;51.702;7.462;2023-07-30T09:15:20;7.20;;;2.65;;
59233;SDS011;60776;51.702;7.462;2023-07-30T09:17:58;6.50;;;3.00;;
59233;SDS011;60776;51.702;7.462;2023-07-30T09:20:24;5.78;;;3.13;;
59233;SDS011;60776;51.702;7.462;2023-07-30T09:22:50;5.68;;;3.50;;
59233;SDS011;60776;51.702;7.462;2023-07-30T09:25:18;6.47;;;3.75;;
59233;SDS011;60776;51.702;7.462;2023-07-30T09:27:47;8.98;;;3.50;;
59233;SDS011;60776;51.702;7.462;2023-07-30T09:30:14;6.28;;;3.65;;
59233;SDS011;60776;51.702;7.462;2023-07-30T09:32:54;7.60;;;3.40;;
59233;SDS011;60776;51.702;7.462;2023-07-30T09:35:21;6.82;;;3.22;;
59233;SDS011;60776;51.702;7.462;2023-07-30T09:37:49;8.05;;;3.17;;
59233;SDS011;60776;51.702;7.462;2023-07-30T09:40:30;7.78;;;3.40;;
59233;SDS011;60776;51.702;7.462;2023-07-30T09:42:59;7.88;;;3.67;;
59233;SDS011;60776;51.702;7.462;2023-07-30T09:45:27;9.55;;;3.45;;
59233;SDS011;60776;51.702;7.462;2023-07-30T09:47:53;7.63;;;3.90;;
59233;SDS011;60776;51.702;7.462;2023-07-30T09:50:21;7.25;;;3.92;;
59233;SDS011;60776;51.702;7.462;2023-07-30T09:52:47;8.45;;;3.75;;
59233;SDS011;60776;51.702;7.462;2023-07-30T09:55:14;6.57;;;3.15;;
59233;SDS011;60776;51.702;7.462;2023-07-30T09:57:40;9.85;;;3.60;;
59233;SDS011;60776;51.702;7.462;2023-07-30T10:00:06;6.88;;;3.10;;
59233;SDS011;60776;51.702;7.462;2023-07-30T10:02:37;6.30;;;3.25;;
59233;SDS011;60776;51.702;7.462;2023-07-30T10:05:10;5.72;;;2.97;;
59233;SDS011;60776;51.702;7.462;2023-07-30T10:07:40;7.68;;;3.35;;
59233;SDS011;60776;51.702;7.462;2023-07-30T10:10:12;6.70;;;2.80;;
59233;SDS011;60776;51.702;7.462;2023-07-30T10:12:38;8.65;;;3.10;;
59233;SDS011;60776;51.702;7.462;2023-07-30T10:15:06;4.63;;;2.40;;
59233;SDS011;60776;51.702;7.462;2023-07-30T10:17:32;4.55;;;2.25;;
59233;SDS011;60776;51.702;7.462;2023-07-30T10:19:58;10.32;;;3.30;;
59233;SDS011;60776;51.702;7.462;2023-07-30T10:22:54;5.28;;;2.60;;
59233;SDS011;60776;51.702;7.462;2023-07-30T10:25:22;5.80;;;2.67;;
59233;SDS011;60776;51.702;7.462;2023-07-30T10:27:53;3.33;;;2.15;;
59233;SDS011;60776;51.702;7.462;2023-07-30T10:30:19;3.97;;;2.20;;
59233;SDS011;60776;51.702;7.462;2023-07-30T10:41:10;4.80;;;2.38;;
59233;SDS011;60776;51.702;7.462;2023-07-30T10:43:39;4.82;;;2.30;;
59233;SDS011;60776;51.702;7.462;2023-07-30T10:46:06;5.28;;;1.92;;
59233;SDS011;60776;51.702;7.462;2023-07-30T10:48:37;6.18;;;2.35;;
59233;SDS011;60776;51.702;7.462;2023-07-30T10:51:05;6.05;;;1.90;;
59233;SDS011;60776;51.702;7.462;2023-07-30T10:53:33;4.57;;;2.25;;
59233;SDS011;60776;51.702;7.462;2023-07-30T10:56:01;6.63;;;2.20;;
59233;SDS011;60776;51.702;7.462;2023-07-30T10:58:37;3.45;;;1.73;;
59233;SDS011;60776;51.702;7.462;2023-07-30T11:01:06;4.78;;;2.17;;
59233;SDS011;60776;51.702;7.462;2023-07-30T11:03:33;7.43;;;2.20;;
59233;SDS011;60776;51.702;7.462;2023-07-30T11:06:00;3.97;;;1.98;;
59233;SDS011;60776;51.702;7.462;2023-07-30T11:08:36;4.18;;;1.85;;
59233;SDS011;60776;51.702;7.462;2023-07-30T11:11:04;5.55;;;2.10;;
59233;SDS011;60776;51.702;7.462;2023-07-30T11:13:34;6.03;;;2.40;;
59233;SDS011;60776;51.702;7.462;2023-07-30T11:16:05;6.82;;;1.85;;
59233;SDS011;60776;51.702;7.462;2023-07-30T11:18:32;5.32;;;1.77;;
59233;SDS011;60776;51.702;7.462;2023-07-30T11:21:02;7.90;;;2.17;;
59233;SDS011;60776;51.702;7.462;2023-07-30T11:23:29;7.15;;;1.98;;
59233;SDS011;60776;51.702;7.462;2023-07-30T11:25:55;7.57;;;2.28;;
59233;SDS011;60776;51.702;7.462;2023-07-30T11:28:29;7.78;;;2.35;;
59233;SDS011;60776;51.702;7.462;2023-07-30T11:31:03;12.65;;;2.58;;
59233;SDS011;60776;51.702;7.462;2023-07-30T11:33:32;7.43;;;2.15;;
59233;SDS011;60776;51.702;7.462;2023-07-30T11:36:00;4.07;;;2.00;;
59233;SDS011;60776;51.702;7.462;2023-07-30T11:38:28;5.00;;;2.30;;
59233;SDS011;60776;51.702;7.462;2023-07-30T11:40:57;5.28;;;2.00;;
59233;SDS011;60776;51.702;7.462;2023-07-30T11:43:23;5.20;;;2.20;;
59233;SDS011;60776;51.702;7.462;2023-07-30T11:45:49;5.43;;;2.40;;
59233;SDS011;60776;51.702;7.462;2023-07-30T11:48:42;5.63;;;2.10;;
59233;SDS011;60776;51.702;7.462;2023-07-30T11:51:19;4.40;;;1.90;;
59233;SDS011;60776;51.702;7.462;2023-07-30T11:56:19;4.97;;;1.80;;
59233;SDS011;60776;51.702;7.462;2023-07-30T11:58:48;3.97;;;1.95;;
59233;SDS011;60776;51.702;7.462;2023-07-30T12:01:18;4.80;;;1.92;;
59233;SDS011;60776;51.702;7.462;2023-07-30T12:03:44;4.53;;;1.85;;
59233;SDS011;60776;51.702;7.462;2023-07-30T12:06:10;6.07;;;1.83;;
59233;SDS011;60776;51.702;7.462;2023-07-30T12:08:37;6.05;;;1.75;;
59233;SDS011;60776;51.702;7.462;2023-07-30T12:11:04;3.85;;;1.58;;
59233;SDS011;60776;51.702;7.462;2023-07-30T12:13:34;4.30;;;1.80;;
59233;SDS011;60776;51.702;7.462;2023-07-30T12:16:16;3.10;;;1.67;;
59233;SDS011;60776;51.702;7.462;2023-07-30T12:18:41;5.85;;;1.90;;
59233;SDS011;60776;51.702;7.462;2023-07-30T12:21:07;3.92;;;1.42;;
59233;SDS011;60776;51.702;7.462;2023-07-30T12:23:36;5.47;;;1.95;;
59233;SDS011;60776;51.702;7.462;2023-07-30T12:26:02;5.38;;;1.80;;
59233;SDS011;60776;51.702;7.462;2023-07-30T12:28:30;4.97;;;1.70;;
59233;SDS011;60776;51.702;7.462;2023-07-30T12:30:57;4.03;;;1.48;;
59233;SDS011;60776;51.702;7.462;2023-07-30T12:33:23;5.55;;;1.88;;
59233;SDS011;60776;51.702;7.462;2023-07-30T12:35:49;9.77;;;2.13;;
59233;SDS011;60776;51.702;7.462;2023-07-30T12:38:18;3.72;;;1.30;;
59233;SDS011;60776;51.702;7.462;2023-07-30T12:40:43;2.75;;;1.20;;
59233;SDS011;60776;51.702;7.462;2023-07-30T12:43:09;2.70;;;1.10;;
59233;SDS011;60776;51.702;7.462;2023-07-30T12:45:37;3.08;;;1.10;;
59233;SDS011;60776;51.702;7.462;2023-07-30T12:48:03;3.53;;;1.10;;
59233;SDS011;60776;51.702;7.462;2023-07-30T12:50:29;2.72;;;1.15;;
59233;SDS011;60776;51.702;7.462;2023-07-30T12:52:55;2.40;;;1.00;;
59233;SDS011;60776;51.702;7.462;2023-07-30T12:55:21;3.25;;;1.02;;
59233;SDS011;60776;51.702;7.462;2023-07-30T12:57:48;2.75;;;0.98;;
59233;SDS011;60776;51.702;7.462;2023-07-30T13:00:15;3.15;;;1.10;;
59233;SDS011;60776;51.702;7.462;2023-07-30T13:02:44;3.13;;;1.45;;
59233;SDS011;60776;51.702;7.462;2023-07-30T13:05:10;3.40;;;1.17;;
59233;SDS011;60776;51.702;7.462;2023-07-30T13:07:36;2.95;;;1.10;;
59233;SDS011;60776;51.702;7.462;2023-07-30T13:10:06;3.55;;;1.30;;
59233;SDS011;60776;51.702;7.462;2023-07-30T13:12:32;2.20;;;1.13;;
59233;SDS011;60776;51.702;7.462;2023-07-30T13:14:59;2.85;;;1.23;;
59233;SDS011;60776;51.702;7.462;2023-07-30T13:17:24;2.17;;;1.02;;
59233;SDS011;60776;51.702;7.462;2023-07-30T13:19:50;1.83;;;1.00;;
59233;SDS011;60776;51.702;7.462;2023-07-30T13:22:16;3.30;;;1.40;;
59233;SDS011;60776;51.702;7.462;2023-07-30T13:24:42;2.85;;;1.20;;
59233;SDS011;60776;51.702;7.462;2023-07-30T13:27:07;3.47;;;1.40;;
59233;SDS011;60776;51.702;7.462;2023-07-30T13:29:33;3.22;;;1.52;;
59233;SDS011;60776;51.702;7.462;2023-07-30T13:31:59;3.92;;;1.27;;
59233;SDS011;60776;51.702;7.462;2023-07-30T13:34:24;3.50;;;1.30;;
59233;SDS011;60776;51.702;7.462;2023-07-30T13:36:50;2.83;;;1.45;;
59233;SDS011;60776;51.702;7.462;2023-07-30T13:39:18;3.45;;;1.50;;
59233;SDS011;60776;51.702;7.462;2023-07-30T13:41:44;4.68;;;1.83;;
59233;SDS011;60776;51.702;7.462;2023-07-30T13:44:10;2.95;;;1.73;;
59233;SDS011;60776;51.702;7.462;2023-07-30T13:46:36;3.63;;;1.65;;
59233;SDS011;60776;51.702;7.462;2023-07-30T13:49:03;4.85;;;1.85;;
59233;SDS011;60776;51.702;7.462;2023-07-30T13:51:29;4.82;;;1.92;;
59233;SDS011;60776;51.702;7.462;2023-07-30T13:53:58;4.30;;;1.67;;
59233;SDS011;60776;51.702;7.462;2023-07-30T13:56:24;4.93;;;1.80;;
59233;SDS011;60776;51.702;7.462;2023-07-30T13:58:53;4.75;;;2.03;;
59233;SDS011;60776;51.702;7.462;2023-07-30T14:01:21;4.32;;;1.70;;
59233;SDS011;60776;51.702;7.462;2023-07-30T14:03:47;4.63;;;1.77;;
59233;SDS011;60776;51.702;7.462;2023-07-30T14:06:13;4.10;;;1.35;;
59233;SDS011;60776;51.702;7.462;2023-07-30T14:08:39;4.63;;;1.88;;
59233;SDS011;60776;51.702;7.462;2023-07-30T14:11:04;4.75;;;2.22;;
59233;SDS011;60776;51.702;7.462;2023-07-30T14:13:32;3.08;;;1.40;;
59233;SDS011;60776;51.702;7.462;2023-07-30T14:15:58;2.08;;;1.13;;
59233;SDS011;60776;51.702;7.462;2023-07-30T14:18:24;4.80;;;1.73;;
59233;SDS011;60776;51.702;7.462;2023-07-30T14:20:50;2.45;;;1.55;;
59233;SDS011;60776;51.702;7.462;2023-07-30T14:23:16;2.95;;;1.42;;
59233;SDS011;60776;51.702;7.462;2023-07-30T14:25:42;5.22;;;1.77;;
59233;SDS011;60776;51.702;7.462;2023-07-30T14:28:08;4.93;;;1.90;;
59233;SDS011;60776;51.702;7.462;2023-07-30T14:30:33;3.08;;;1.40;;
59233;SDS011;60776;51.702;7.462;2023-07-30T14:33:00;2.90;;;1.33;;
59233;SDS011;60776;51.702;7.462;2023-07-30T14:35:29;5.20;;;1.30;;
59233;SDS011;60776;51.702;7.462;2023-07-30T14:37:55;2.97;;;1.30;;
59233;SDS011;60776;51.702;7.462;2023-07-30T14:40:21;3.08;;;1.20;;
59233;SDS011;60776;51.702;7.462;2023-07-30T14:42:47;3.42;;;1.30;;
59233;SDS011;60776;51.702;7.462;2023-07-30T14:45:12;3.75;;;1.38;;
59233;SDS011;60776;51.702;7.462;2023-07-30T14:47:38;2.95;;;1.35;;
59233;SDS011;60776;51.702;7.462;2023-07-30T14:50:04;3.67;;;1.10;;
59233;SDS011;60776;51.702;7.462;2023-07-30T14:52:31;2.90;;;1.00;;
59233;SDS011;60776;51.702;7.462;2023-07-30T14:54:57;2.83;;;1.10;;